Westrac — WTH4325 — position and weather

sailwx.info

Track history (hours):
 
Tides and Currents Weather Stations Pressure Air Temp Water Temp Dewpoint Dewpoint Depression Visibility Wind Speed Wind Dir Waves Ship Positions

Westrac

Owner: WESTERN TOWBOAT CO, SEATTLE, WA. More information available from US FCC via Universal Licensing System and Coast Guard Vessel Documentation Center.

Last reported at 2015-May-22 01:58 UTC. Time now 2015-May-22 11:38 UTC.
Position N 47°34' W 122°21'.

Length 23 m; draft 5 m.

Type: Tug. MMSI: 366993010.

Date/timePositionNaut miles runAvg speedWind from/ knotsBaromVisibWave heightAir tempDewpointWater temp
2015-May-22 01:58N 47°34' W 122°21'0 1.0
2015-May-22 01:33N 47°34' W 122°21'0 0.0
2015-May-22 01:33N 47°34' W 122°21'1 1.0
2015-May-22 00:33N 47°35' W 122°21'0 0.8
2015-May-22 00:33N 47°35' W 122°21'1 1.4
2015-May-21 23:33N 47°36' W 122°23'0 1.0
2015-May-21 23:32N 47°36' W 122°23'1 1.4
2015-May-21 22:33N 47°35' W 122°21'0 0.0
2015-May-21 22:30N 47°35' W 122°21'1 1.5
2015-May-21 21:33N 47°34' W 122°21'0 8.2
2015-May-21 21:30N 47°34' W 122°21'0 0.4
2015-May-21 20:33N 47°34' W 122°21'0 5.9
2015-May-21 20:31N 47°34' W 122°21'1 1.3
2015-May-21 19:32N 47°35' W 122°21'0 6.7
2015-May-21 19:30N 47°35' W 122°22'1 1.1
2015-May-21 18:28N 47°34' W 122°21'0 0.0
2015-May-21 18:28N 47°34' W 122°21'0 0.0
2015-May-21 17:33N 47°34' W 122°21'0 0.0
2015-May-21 17:33N 47°34' W 122°21'0 0.0
2015-May-21 16:32N 47°34' W 122°21'0 0.0
2015-May-21 16:32N 47°34' W 122°21'1 1.1
2015-May-21 15:33N 47°33' W 122°20'0 0.0
2015-May-21 15:32N 47°33' W 122°20'1 1.1
2015-May-21 14:33N 47°34' W 122°21'0 3.1
2015-May-21 14:32N 47°34' W 122°21'1 0.1
2015-May-21 02:53N 47°35' W 122°22'1 2.2
2015-May-21 02:33N 47°35' W 122°21'0 0.6
2015-May-21 02:17N 47°35' W 122°21'2 2.9
2015-May-21 01:34N 47°33' W 122°21'010.2
2015-May-21 01:32N 47°33' W 122°20'0 0.0
2015-May-21 00:33N 47°33' W 122°20'0 2.4
2015-May-21 00:32N 47°33' W 122°21'2 2.5
2015-May-20 23:34N 47°35' W 122°22'0 0.0
2015-May-20 23:31N 47°35' W 122°22'3 2.8
2015-May-20 22:34N 47°33' W 122°20'0 0.0
2015-May-20 22:30N 47°33' W 122°20'0 0.0
2015-May-20 21:32N 47°33' W 122°20'0 1.3
2015-May-20 21:26N 47°33' W 122°20'1 1.6
2015-May-20 20:33N 47°34' W 122°21'0 0.1
2015-May-20 20:30N 47°34' W 122°21'0 0.0
2015-May-20 19:31N 47°34' W 122°21'0 0.0
2015-May-20 19:25N 47°34' W 122°21'0 0.0
2015-May-20 18:27N 47°34' W 122°21'0 0.0
2015-May-20 18:24N 47°34' W 122°21'0 0.0
2015-May-20 17:33N 47°34' W 122°21'0 0.0
2015-May-20 17:19N 47°34' W 122°21'1 1.1
2015-May-20 16:34N 47°33' W 122°21'0 0.0
2015-May-20 16:34N 47°33' W 122°21'1 0.8
2015-May-20 15:33N 47°34' W 122°21'0 0.1
2015-May-20 14:34N 47°34' W 122°21'0 5.4
2015-May-20 14:33N 47°34' W 122°21'0 0.2
2015-May-20 13:34N 47°34' W 122°21'0 0.6
2015-May-20 13:33N 47°34' W 122°21'0 0.0
2015-May-20 12:33N 47°34' W 122°21'0 0.0
2015-May-20 12:17N 47°34' W 122°21'0 0.0
2015-May-20 11:33N 47°34' W 122°21'0 0.0
2015-May-20 10:33N 47°34' W 122°21'0 0.1
2015-May-20 10:30N 47°34' W 122°21'0 0.0
2015-May-20 09:33N 47°34' W 122°21'0 0.0
2015-May-20 09:30N 47°34' W 122°21'0 0.0
2015-May-20 08:33N 47°34' W 122°21'0 0.1
2015-May-20 08:29N 47°34' W 122°21'0 0.0
2015-May-20 07:33N 47°34' W 122°21'0 0.1
2015-May-20 07:29N 47°34' W 122°21'0 0.0
2015-May-20 06:34N 47°34' W 122°21'0 0.0
2015-May-20 06:33N 47°34' W 122°21'0 0.0
2015-May-20 06:13N 47°34' W 122°21'0 0.0
2015-May-20 05:33N 47°34' W 122°21'0 0.0
2015-May-20 04:33N 47°34' W 122°21'0 0.0
2015-May-20 04:33N 47°34' W 122°21'0 0.0
2015-May-20 03:33N 47°34' W 122°21'0 1.7
2015-May-20 03:33N 47°34' W 122°21'0 0.0
2015-May-20 02:34N 47°34' W 122°21'0 0.0
2015-May-20 02:33N 47°34' W 122°21'0 0.0
2015-May-20 01:33N 47°34' W 122°21'0 0.4
2015-May-20 01:32N 47°34' W 122°21'0 0.0
2015-May-20 00:34N 47°34' W 122°21'0 0.0
2015-May-20 00:32N 47°34' W 122°21'0 0.0
2015-May-19 23:33N 47°34' W 122°21'0 0.2
2015-May-19 23:31N 47°34' W 122°21'2 1.9
2015-May-19 22:34N 47°32' W 122°20'0 0.0
2015-May-19 22:31N 47°32' W 122°20'2 1.9
2015-May-19 21:33N 47°34' W 122°21'1 0.4
2015-May-19 18:33N 47°35' W 122°21'0 0.0
2015-May-19 17:33N 47°35' W 122°21'3 2.5
2015-May-19 16:24N 47°33' W 122°20'1 0.7
2015-May-19 15:31N 47°33' W 122°20'2 2.1
2015-May-19 14:32N 47°35' W 122°22'1 0.8
2015-May-19 13:31N 47°36' W 122°22'2 0.1
2015-May-19 00:31N 47°34' W 122°21'0 0.0
2015-May-19 00:31N 47°34' W 122°21'2 2.4
2015-May-18 23:33N 47°32' W 122°19'0 0.1
2015-May-18 23:30N 47°32' W 122°19'0 0.1
2015-May-18 22:33N 47°32' W 122°20'0 1.2
2015-May-18 22:24N 47°32' W 122°19'0 0.4
2015-May-18 21:33N 47°32' W 122°20'0 3.0
2015-May-18 21:29N 47°32' W 122°19'3 3.7
2015-May-18 20:33N 47°35' W 122°21'0 0.1
2015-May-18 20:29N 47°35' W 122°21'0 0.0
2015-May-18 19:33N 47°35' W 122°21'1 0.5
2015-May-18 18:29N 47°35' W 122°22'1 5.9
2015-May-18 18:22N 47°35' W 122°22'5 5.9
2015-May-18 17:33N 47°34' W 122°29'1 7.2
2015-May-18 17:27N 47°34' W 122°30'5 5.1
2015-May-18 16:33N 47°34' W 122°37'0 5.1
2015-May-18 16:32N 47°34' W 122°37'1 1.1
2015-May-18 15:33N 47°33' W 122°38'1 9.6
2015-May-18 15:26N 47°34' W 122°36'6 6.6
2015-May-18 14:33N 47°35' W 122°28'1 9.5
2015-May-18 14:26N 47°35' W 122°26'4 4.2
2015-May-18 13:30N 47°34' W 122°21'0 0.0
2015-May-18 13:14N 47°34' W 122°21'0 0.0
2015-May-18 12:33N 47°34' W 122°21'0 0.0
2015-May-18 12:30N 47°34' W 122°21'0 0.0
2015-May-18 11:33N 47°34' W 122°21'0 0.0
2015-May-18 11:29N 47°34' W 122°21'0 0.0
2015-May-18 10:33N 47°34' W 122°21'0 0.0
2015-May-18 10:23N 47°34' W 122°21'0 0.0
2015-May-18 09:33N 47°34' W 122°21'0 0.0
2015-May-18 09:12N 47°34' W 122°21'0 0.0
2015-May-18 08:33N 47°34' W 122°21'0 0.0
2015-May-18 08:33N 47°34' W 122°21'0 0.0
2015-May-18 07:33N 47°34' W 122°21'0 0.0
2015-May-18 07:32N 47°34' W 122°21'0 0.0
2015-May-18 06:33N 47°34' W 122°21'0 0.0
2015-May-18 06:32N 47°34' W 122°21'0 0.0
2015-May-18 06:12N 47°34' W 122°21'0 0.0
2015-May-18 05:34N 47°34' W 122°21'0 0.0
2015-May-18 04:33N 47°34' W 122°21'0 0.0
2015-May-18 04:30N 47°34' W 122°21'0 0.0
2015-May-18 03:31N 47°34' W 122°21'0 0.0
2015-May-18 03:30N 47°34' W 122°21'0 0.0
2015-May-18 02:33N 47°34' W 122°21'0 0.1
2015-May-18 02:29N 47°34' W 122°21'0 0.0
2015-May-18 01:33N 47°34' W 122°21'0 0.1
2015-May-18 01:29N 47°34' W 122°21'0 0.0
2015-May-18 00:33N 47°34' W 122°21'0 0.0
2015-May-18 00:28N 47°34' W 122°21'0 0.0
2015-May-17 23:33N 47°34' W 122°21'0 0.0
2015-May-17 23:33N 47°34' W 122°21'0 0.0
2015-May-17 22:32N 47°34' W 122°21'0 0.1
2015-May-17 22:27N 47°34' W 122°21'0 0.0
2015-May-17 21:29N 47°34' W 122°21'0 0.1
2015-May-17 21:22N 47°34' W 122°21'1 1.5
2015-May-17 20:33N 47°35' W 122°21'0 0.4
2015-May-17 20:32N 47°35' W 122°21'1 0.6
2015-May-17 19:33N 47°35' W 122°22'0 5.0
2015-May-17 19:32N 47°35' W 122°22'2 1.8
2015-May-17 18:33N 47°33' W 122°21'0 0.1
2015-May-17 18:26N 47°33' W 122°21'1 1.0
2015-May-17 17:32N 47°34' W 122°21'0 0.0
2015-May-17 17:31N 47°34' W 122°21'0 0.0
2015-May-17 16:32N 47°34' W 122°21'0 0.3
2015-May-17 16:30N 47°34' W 122°21'0 0.0
2015-May-17 15:33N 47°34' W 122°21'0 0.1
2015-May-17 15:29N 47°34' W 122°21'0 0.0
2015-May-17 14:33N 47°34' W 122°21'0 0.0
2015-May-17 14:33N 47°34' W 122°21'0 0.0
2015-May-17 13:33N 47°34' W 122°21'0 0.0
2015-May-17 13:32N 47°34' W 122°21'0 0.0
2015-May-17 12:33N 47°34' W 122°21'0 0.6
2015-May-17 12:32N 47°34' W 122°21'0 0.0
2015-May-17 11:33N 47°34' W 122°21'0 0.0
2015-May-17 11:25N 47°34' W 122°21'0 0.0
2015-May-17 10:33N 47°34' W 122°21'0 0.1
2015-May-17 10:30N 47°34' W 122°21'0 0.0
2015-May-17 09:33N 47°34' W 122°21'0 0.0
2015-May-17 09:19N 47°34' W 122°21'0 0.0
2015-May-17 08:33N 47°34' W 122°21'0 0.1
2015-May-17 08:29N 47°34' W 122°21'0 0.0
2015-May-17 07:33N 47°34' W 122°21'0 0.0
2015-May-17 07:18N 47°34' W 122°21'0 0.0
2015-May-17 06:33N 47°34' W 122°21'0 0.0
2015-May-17 06:33N 47°34' W 122°21'0 0.0
2015-May-17 06:03N 47°34' W 122°21'0 0.0
2015-May-17 05:33N 47°34' W 122°21'0 0.0
2015-May-17 04:33N 47°34' W 122°21'0 0.0
2015-May-17 04:33N 47°34' W 122°21'0 0.0
2015-May-17 03:33N 47°34' W 122°21'0 0.0
2015-May-17 03:32N 47°34' W 122°21'0 0.0
2015-May-17 02:33N 47°34' W 122°21'0 0.4
2015-May-17 02:32N 47°34' W 122°21'0 0.0
2015-May-17 01:32N 47°34' W 122°21'0 0.0
2015-May-17 01:25N 47°34' W 122°21'0 0.0
2015-May-17 00:33N 47°34' W 122°21'0 0.1
2015-May-17 00:30N 47°34' W 122°21'0 0.0
2015-May-16 23:33N 47°34' W 122°21'0 0.1
2015-May-16 23:29N 47°34' W 122°21'1 1.5
2015-May-16 22:33N 47°35' W 122°21'0 0.1
2015-May-16 22:28N 47°35' W 122°21'0 0.0
2015-May-16 21:33N 47°35' W 122°21'0 0.7
2015-May-16 21:29N 47°35' W 122°21'0 0.1
2015-May-16 20:34N 47°35' W 122°22'0 0.6
2015-May-16 20:33N 47°35' W 122°22'2 2.1
2015-May-16 19:33N 47°33' W 122°21'0 0.0
2015-May-16 19:33N 47°33' W 122°21'1 0.6
2015-May-16 18:33N 47°33' W 122°20'0 0.0
2015-May-16 18:33N 47°33' W 122°20'3 3.1
2015-May-16 17:33N 47°36' W 122°22'0 0.0
2015-May-16 17:33N 47°36' W 122°22'2 2.2
2015-May-16 16:32N 47°34' W 122°21'0 7.5
2015-May-16 16:31N 47°34' W 122°21'0 0.5
2015-May-16 15:33N 47°34' W 122°21'0 0.0
2015-May-16 15:31N 47°34' W 122°21'0 0.0
2015-May-16 14:33N 47°34' W 122°21'0 0.0
2015-May-16 14:29N 47°34' W 122°21'0 0.0
2015-May-16 13:33N 47°34' W 122°21'0 0.0
2015-May-16 13:29N 47°34' W 122°21'0 0.0
2015-May-16 12:33N 47°34' W 122°21'0 0.1
2015-May-16 12:29N 47°34' W 122°21'0 0.0
2015-May-16 11:33N 47°34' W 122°21'0 0.1
2015-May-16 11:29N 47°34' W 122°21'0 0.0
2015-May-16 10:33N 47°34' W 122°21'0 0.0
2015-May-16 10:29N 47°34' W 122°21'0 0.0
2015-May-16 09:33N 47°34' W 122°21'0 0.0
2015-May-16 09:29N 47°34' W 122°21'0 0.0
2015-May-16 08:34N 47°34' W 122°21'0 0.0
2015-May-16 08:33N 47°34' W 122°21'0 0.0
2015-May-16 07:33N 47°34' W 122°21'0 0.0
2015-May-16 07:33N 47°34' W 122°21'0 0.0
2015-May-16 06:33N 47°34' W 122°21'0 0.0
2015-May-16 06:33N 47°34' W 122°21'0 0.0
2015-May-16 06:02N 47°34' W 122°21'0 0.0
2015-May-16 05:33N 47°34' W 122°21'0 0.0
2015-May-16 04:33N 47°34' W 122°21'0 0.0
2015-May-16 04:31N 47°34' W 122°21'0 0.0
2015-May-16 03:33N 47°34' W 122°21'0 2.1
2015-May-16 03:31N 47°34' W 122°21'0 0.5
2015-May-16 02:33N 47°34' W 122°21'0 9.2
2015-May-16 02:31N 47°34' W 122°21'1 1.0
2015-May-16 01:34N 47°33' W 122°20'0 0.0
2015-May-16 01:19N 47°33' W 122°20'0 0.0
2015-May-16 00:39N 47°33' W 122°20'0 0.0
2015-May-16 00:33N 47°33' W 122°20'0 0.0
2015-May-15 23:31N 47°33' W 122°20'0 0.0
2015-May-15 23:30N 47°33' W 122°20'2 1.8
2015-May-15 22:30N 47°35' W 122°22'1 1.0
2015-May-15 21:33N 47°35' W 122°22'2 1.8
2015-May-15 20:33N 47°34' W 122°21'0 0.3
2015-May-15 19:33N 47°34' W 122°21'1 1.3
2015-May-15 18:33N 47°35' W 122°22'3 2.6
2015-May-15 17:33N 47°38' W 122°23'4 3.9
2015-May-15 16:33N 47°34' W 122°21'0 0.0
2015-May-15 15:33N 47°34' W 122°21'0 0.0
2015-May-15 14:32N 47°34' W 122°21'0 0.0
2015-May-15 13:23N 47°34' W 122°21'0 0.0
2015-May-15 12:33N 47°34' W 122°21'0 0.0
2015-May-15 11:34N 47°34' W 122°21'0 0.0
2015-May-15 10:33N 47°34' W 122°21'0 0.0
2015-May-15 09:33N 47°34' W 122°21'0 0.0
2015-May-15 08:33N 47°34' W 122°21'0 0.0
2015-May-15 07:33N 47°34' W 122°21'0 0.0
2015-May-15 06:33N 47°34' W 122°21'1 1.2
2015-May-15 05:33N 47°35' W 122°21'0 0.0
2015-May-15 04:33N 47°35' W 122°21'2 2.2
2015-May-15 03:33N 47°33' W 122°21'1 1.0
2015-May-15 02:33N 47°34' W 122°21'0 0.0
2015-May-15 01:33N 47°34' W 122°21'0 0.0
2015-May-15 00:33N 47°34' W 122°21'1 1.3
2015-May-14 23:32N 47°35' W 122°21'1 1.4
2015-May-14 22:33N 47°34' W 122°21'2 1.8
2015-May-14 21:33N 47°36' W 122°22'3 2.6
2015-May-14 20:33N 47°33' W 122°21'0 0.1
2015-May-14 20:08N 47°33' W 122°21'2 3.5
2015-May-14 19:33N 47°35' W 122°21'0 0.0
2015-May-14 19:33N 47°35' W 122°21'0 0.0
2015-May-14 18:33N 47°35' W 122°21'0 0.0
2015-May-14 18:32N 47°35' W 122°21'0 0.2
2015-May-14 17:33N 47°35' W 122°21'0 7.7
2015-May-14 17:32N 47°35' W 122°22'2 2.1
2015-May-14 16:31N 47°33' W 122°21'0 1.4
2015-May-14 16:31N 47°33' W 122°21'4 4.5
2015-May-14 15:33N 47°37' W 122°24'0 8.2
2015-May-14 15:31N 47°37' W 122°24'1 0.9
2015-May-14 14:33N 47°37' W 122°23'0 0.2
2015-May-14 14:30N 47°37' W 122°23'4 3.9
2015-May-14 13:33N 47°34' W 122°21'0 9.5
2015-May-14 13:31N 47°34' W 122°21'0 0.0
2015-May-14 01:38N 47°33' W 122°21'0 0.9
2015-May-14 01:31N 47°33' W 122°21'0 5.3
2015-May-14 01:27N 47°34' W 122°21'0 0.4
2015-May-14 00:34N 47°33' W 122°21'0 0.0
2015-May-14 00:32N 47°33' W 122°21'2 2.1
2015-May-13 23:34N 47°35' W 122°21'0 0.3
2015-May-13 23:32N 47°35' W 122°21'3 2.8
2015-May-13 22:34N 47°38' W 122°23'0 3.4
2015-May-13 22:32N 47°38' W 122°23'3 2.6
2015-May-13 21:34N 47°35' W 122°21'0 1.2
2015-May-13 21:31N 47°35' W 122°21'2 1.9
2015-May-13 20:34N 47°34' W 122°21'1 6.0
2015-May-13 20:26N 47°34' W 122°21'1 1.1
2015-May-13 19:34N 47°35' W 122°22'0 6.6
2015-May-13 19:31N 47°35' W 122°22'2 1.6
2015-May-13 18:34N 47°34' W 122°21'0 6.3
2015-May-13 18:31N 47°34' W 122°21'1 1.0
2015-May-13 17:33N 47°35' W 122°22'0 5.0
2015-May-13 17:31N 47°34' W 122°21'2 2.3
2015-May-13 16:33N 47°33' W 122°20'0 0.0
2015-May-13 16:30N 47°33' W 122°20'3 2.9
2015-May-13 15:34N 47°35' W 122°21'0 0.1
2015-May-13 15:30N 47°35' W 122°21'2 1.6
2015-May-13 14:33N 47°34' W 122°21'0 5.4
2015-May-13 14:29N 47°33' W 122°21'1 0.7
2015-May-13 13:22N 47°34' W 122°21'0 0.0
2015-May-13 13:15N 47°34' W 122°21'0 0.0
2015-May-13 12:34N 47°34' W 122°21'0 0.1
2015-May-13 12:29N 47°34' W 122°21'0 0.0
2015-May-13 11:33N 47°34' W 122°21'0 0.0
2015-May-13 11:28N 47°34' W 122°21'0 0.0
2015-May-13 10:34N 47°34' W 122°21'0 0.0
2015-May-13 10:33N 47°34' W 122°21'0 0.0
2015-May-13 09:33N 47°34' W 122°21'0 0.0
2015-May-13 09:29N 47°34' W 122°21'0 0.0
2015-May-13 08:31N 47°34' W 122°21'0 0.1
2015-May-13 08:28N 47°34' W 122°21'0 0.0
2015-May-13 07:34N 47°34' W 122°21'0 0.0
2015-May-13 07:33N 47°34' W 122°21'0 0.0
2015-May-13 06:30N 47°34' W 122°21'0 0.0
2015-May-13 06:17N 47°34' W 122°21'0 0.0
2015-May-13 05:32N 47°34' W 122°21'0 0.0
2015-May-13 04:34N 47°34' W 122°21'0 0.3
2015-May-13 04:32N 47°34' W 122°21'0 0.0
2015-May-13 03:33N 47°34' W 122°21'0 0.0
2015-May-13 03:32N 47°34' W 122°21'0 0.0
2015-May-13 02:33N 47°34' W 122°21'0 0.0
2015-May-13 02:26N 47°34' W 122°21'0 0.0
2015-May-13 01:33N 47°34' W 122°21'0 0.3
2015-May-13 01:31N 47°34' W 122°21'0 0.0
2015-May-13 00:34N 47°34' W 122°21'0 0.3
2015-May-13 00:31N 47°34' W 122°21'1 1.2
2015-May-12 23:34N 47°35' W 122°21'0 0.1
2015-May-12 23:31N 47°35' W 122°21'1 1.4
2015-May-12 22:33N 47°36' W 122°23'0 5.7
2015-May-12 22:30N 47°36' W 122°23'1 1.4
2015-May-12 21:34N 47°35' W 122°22'0 4.7
2015-May-12 21:29N 47°35' W 122°22'3 3.2
2015-May-12 20:33N 47°32' W 122°20'2 4.2
2015-May-12 20:03N 47°34' W 122°21'1 1.5
2015-May-12 19:33N 47°35' W 122°22'0 0.1
2015-May-12 19:23N 47°35' W 122°22'2 2.6
2015-May-12 18:32N 47°33' W 122°20'0 0.6
2015-May-12 18:28N 47°33' W 122°20'1 1.6
2015-May-12 17:33N 47°34' W 122°21'0 0.0
2015-May-12 17:12N 47°34' W 122°21'0 0.0
2015-May-12 16:34N 47°34' W 122°21'0 0.0
2015-May-12 16:32N 47°34' W 122°21'0 0.0
2015-May-12 15:33N 47°34' W 122°21'0 0.0
2015-May-12 15:32N 47°34' W 122°21'1 0.9
2015-May-12 14:34N 47°33' W 122°21'0 0.0
2015-May-12 14:32N 47°33' W 122°21'1 1.4
2015-May-12 13:34N 47°35' W 122°22'0 6.4
2015-May-12 13:32N 47°35' W 122°22'0 0.4
2015-May-12 12:33N 47°34' W 122°21'0 6.8
2015-May-12 12:31N 47°34' W 122°21'0 0.0
2015-May-12 02:54N 47°34' W 122°21'2 6.1
2015-May-12 02:33N 47°36' W 122°22'0 2.3
2015-May-12 02:23N 47°36' W 122°22'  
Track history (hours):
 
Tides and Currents Weather Stations Pressure Air Temp Water Temp Dewpoint Dewpoint Depression Visibility Wind Speed Wind Dir Waves Ship Positions

Westrac

Owner: WESTERN TOWBOAT CO, SEATTLE, WA. More information available from US FCC via Universal Licensing System and Coast Guard Vessel Documentation Center.

Last reported at 2015-May-22 01:58 UTC. Time now 2015-May-22 11:38 UTC.
Position N 47°34' W 122°21'.

Length 23 m; draft 5 m.

Type: Tug. MMSI: 366993010.

Date/timePositionNaut miles runAvg speedWind from/ knotsBaromVisibWave heightAir tempDewpointWater temp
2015-May-22 01:58N 47°34' W 122°21'0 1.0
2015-May-22 01:33N 47°34' W 122°21'0 0.0
2015-May-22 01:33N 47°34' W 122°21'1 1.0
2015-May-22 00:33N 47°35' W 122°21'0 0.8
2015-May-22 00:33N 47°35' W 122°21'1 1.4
2015-May-21 23:33N 47°36' W 122°23'0 1.0
2015-May-21 23:32N 47°36' W 122°23'1 1.4
2015-May-21 22:33N 47°35' W 122°21'0 0.0
2015-May-21 22:30N 47°35' W 122°21'1 1.5
2015-May-21 21:33N 47°34' W 122°21'0 8.2
2015-May-21 21:30N 47°34' W 122°21'0 0.4
2015-May-21 20:33N 47°34' W 122°21'0 5.9
2015-May-21 20:31N 47°34' W 122°21'1 1.3
2015-May-21 19:32N 47°35' W 122°21'0 6.7
2015-May-21 19:30N 47°35' W 122°22'1 1.1
2015-May-21 18:28N 47°34' W 122°21'0 0.0
2015-May-21 18:28N 47°34' W 122°21'0 0.0
2015-May-21 17:33N 47°34' W 122°21'0 0.0
2015-May-21 17:33N 47°34' W 122°21'0 0.0
2015-May-21 16:32N 47°34' W 122°21'0 0.0
2015-May-21 16:32N 47°34' W 122°21'1 1.1
2015-May-21 15:33N 47°33' W 122°20'0 0.0
2015-May-21 15:32N 47°33' W 122°20'1 1.1
2015-May-21 14:33N 47°34' W 122°21'0 3.1
2015-May-21 14:32N 47°34' W 122°21'1 0.1
2015-May-21 02:53N 47°35' W 122°22'1 2.2
2015-May-21 02:33N 47°35' W 122°21'0 0.6
2015-May-21 02:17N 47°35' W 122°21'2 2.9
2015-May-21 01:34N 47°33' W 122°21'010.2
2015-May-21 01:32N 47°33' W 122°20'0 0.0
2015-May-21 00:33N 47°33' W 122°20'0 2.4
2015-May-21 00:32N 47°33' W 122°21'2 2.5
2015-May-20 23:34N 47°35' W 122°22'0 0.0
2015-May-20 23:31N 47°35' W 122°22'3 2.8
2015-May-20 22:34N 47°33' W 122°20'0 0.0
2015-May-20 22:30N 47°33' W 122°20'0 0.0
2015-May-20 21:32N 47°33' W 122°20'0 1.3
2015-May-20 21:26N 47°33' W 122°20'1 1.6
2015-May-20 20:33N 47°34' W 122°21'0 0.1
2015-May-20 20:30N 47°34' W 122°21'0 0.0
2015-May-20 19:31N 47°34' W 122°21'0 0.0
2015-May-20 19:25N 47°34' W 122°21'0 0.0
2015-May-20 18:27N 47°34' W 122°21'0 0.0
2015-May-20 18:24N 47°34' W 122°21'0 0.0
2015-May-20 17:33N 47°34' W 122°21'0 0.0
2015-May-20 17:19N 47°34' W 122°21'1 1.1
2015-May-20 16:34N 47°33' W 122°21'0 0.0
2015-May-20 16:34N 47°33' W 122°21'1 0.8
2015-May-20 15:33N 47°34' W 122°21'0 0.1
2015-May-20 14:34N 47°34' W 122°21'0 5.4
2015-May-20 14:33N 47°34' W 122°21'0 0.2
2015-May-20 13:34N 47°34' W 122°21'0 0.6
2015-May-20 13:33N 47°34' W 122°21'0 0.0
2015-May-20 12:33N 47°34' W 122°21'0 0.0
2015-May-20 12:17N 47°34' W 122°21'0 0.0
2015-May-20 11:33N 47°34' W 122°21'0 0.0
2015-May-20 10:33N 47°34' W 122°21'0 0.1
2015-May-20 10:30N 47°34' W 122°21'0 0.0
2015-May-20 09:33N 47°34' W 122°21'0 0.0
2015-May-20 09:30N 47°34' W 122°21'0 0.0
2015-May-20 08:33N 47°34' W 122°21'0 0.1
2015-May-20 08:29N 47°34' W 122°21'0 0.0
2015-May-20 07:33N 47°34' W 122°21'0 0.1
2015-May-20 07:29N 47°34' W 122°21'0 0.0
2015-May-20 06:34N 47°34' W 122°21'0 0.0
2015-May-20 06:33N 47°34' W 122°21'0 0.0
2015-May-20 06:13N 47°34' W 122°21'0 0.0
2015-May-20 05:33N 47°34' W 122°21'0 0.0
2015-May-20 04:33N 47°34' W 122°21'0 0.0
2015-May-20 04:33N 47°34' W 122°21'0 0.0
2015-May-20 03:33N 47°34' W 122°21'0 1.7
2015-May-20 03:33N 47°34' W 122°21'0 0.0
2015-May-20 02:34N 47°34' W 122°21'0 0.0
2015-May-20 02:33N 47°34' W 122°21'0 0.0
2015-May-20 01:33N 47°34' W 122°21'0 0.4
2015-May-20 01:32N 47°34' W 122°21'0 0.0
2015-May-20 00:34N 47°34' W 122°21'0 0.0
2015-May-20 00:32N 47°34' W 122°21'0 0.0
2015-May-19 23:33N 47°34' W 122°21'0 0.2
2015-May-19 23:31N 47°34' W 122°21'2 1.9
2015-May-19 22:34N 47°32' W 122°20'0 0.0
2015-May-19 22:31N 47°32' W 122°20'2 1.9
2015-May-19 21:33N 47°34' W 122°21'1 0.4
2015-May-19 18:33N 47°35' W 122°21'0 0.0
2015-May-19 17:33N 47°35' W 122°21'3 2.5
2015-May-19 16:24N 47°33' W 122°20'1 0.7
2015-May-19 15:31N 47°33' W 122°20'2 2.1
2015-May-19 14:32N 47°35' W 122°22'1 0.8
2015-May-19 13:31N 47°36' W 122°22'2 0.1
2015-May-19 00:31N 47°34' W 122°21'0 0.0
2015-May-19 00:31N 47°34' W 122°21'2 2.4
2015-May-18 23:33N 47°32' W 122°19'0 0.1
2015-May-18 23:30N 47°32' W 122°19'0 0.1
2015-May-18 22:33N 47°32' W 122°20'0 1.2
2015-May-18 22:24N 47°32' W 122°19'0 0.4
2015-May-18 21:33N 47°32' W 122°20'0 3.0
2015-May-18 21:29N 47°32' W 122°19'3 3.7
2015-May-18 20:33N 47°35' W 122°21'0 0.1
2015-May-18 20:29N 47°35' W 122°21'0 0.0
2015-May-18 19:33N 47°35' W 122°21'1 0.5
2015-May-18 18:29N 47°35' W 122°22'1 5.9
2015-May-18 18:22N 47°35' W 122°22'5 5.9
2015-May-18 17:33N 47°34' W 122°29'1 7.2
2015-May-18 17:27N 47°34' W 122°30'5 5.1
2015-May-18 16:33N 47°34' W 122°37'0 5.1
2015-May-18 16:32N 47°34' W 122°37'1 1.1
2015-May-18 15:33N 47°33' W 122°38'1 9.6
2015-May-18 15:26N 47°34' W 122°36'6 6.6
2015-May-18 14:33N 47°35' W 122°28'1 9.5
2015-May-18 14:26N 47°35' W 122°26'4 4.2
2015-May-18 13:30N 47°34' W 122°21'0 0.0
2015-May-18 13:14N 47°34' W 122°21'0 0.0
2015-May-18 12:33N 47°34' W 122°21'0 0.0
2015-May-18 12:30N 47°34' W 122°21'0 0.0
2015-May-18 11:33N 47°34' W 122°21'0 0.0
2015-May-18 11:29N 47°34' W 122°21'0 0.0
2015-May-18 10:33N 47°34' W 122°21'0 0.0
2015-May-18 10:23N 47°34' W 122°21'0 0.0
2015-May-18 09:33N 47°34' W 122°21'0 0.0
2015-May-18 09:12N 47°34' W 122°21'0 0.0
2015-May-18 08:33N 47°34' W 122°21'0 0.0
2015-May-18 08:33N 47°34' W 122°21'0 0.0
2015-May-18 07:33N 47°34' W 122°21'0 0.0
2015-May-18 07:32N 47°34' W 122°21'0 0.0
2015-May-18 06:33N 47°34' W 122°21'0 0.0
2015-May-18 06:32N 47°34' W 122°21'0 0.0
2015-May-18 06:12N 47°34' W 122°21'0 0.0
2015-May-18 05:34N 47°34' W 122°21'0 0.0
2015-May-18 04:33N 47°34' W 122°21'0 0.0
2015-May-18 04:30N 47°34' W 122°21'0 0.0
2015-May-18 03:31N 47°34' W 122°21'0 0.0
2015-May-18 03:30N 47°34' W 122°21'0 0.0
2015-May-18 02:33N 47°34' W 122°21'0 0.1
2015-May-18 02:29N 47°34' W 122°21'0 0.0
2015-May-18 01:33N 47°34' W 122°21'0 0.1
2015-May-18 01:29N 47°34' W 122°21'0 0.0
2015-May-18 00:33N 47°34' W 122°21'0 0.0
2015-May-18 00:28N 47°34' W 122°21'0 0.0
2015-May-17 23:33N 47°34' W 122°21'0 0.0
2015-May-17 23:33N 47°34' W 122°21'0 0.0
2015-May-17 22:32N 47°34' W 122°21'0 0.1
2015-May-17 22:27N 47°34' W 122°21'0 0.0
2015-May-17 21:29N 47°34' W 122°21'0 0.1
2015-May-17 21:22N 47°34' W 122°21'1 1.5
2015-May-17 20:33N 47°35' W 122°21'0 0.4
2015-May-17 20:32N 47°35' W 122°21'1 0.6
2015-May-17 19:33N 47°35' W 122°22'0 5.0
2015-May-17 19:32N 47°35' W 122°22'2 1.8
2015-May-17 18:33N 47°33' W 122°21'0 0.1
2015-May-17 18:26N 47°33' W 122°21'1 1.0
2015-May-17 17:32N 47°34' W 122°21'0 0.0
2015-May-17 17:31N 47°34' W 122°21'0 0.0
2015-May-17 16:32N 47°34' W 122°21'0 0.3
2015-May-17 16:30N 47°34' W 122°21'0 0.0
2015-May-17 15:33N 47°34' W 122°21'0 0.1
2015-May-17 15:29N 47°34' W 122°21'0 0.0
2015-May-17 14:33N 47°34' W 122°21'0 0.0
2015-May-17 14:33N 47°34' W 122°21'0 0.0
2015-May-17 13:33N 47°34' W 122°21'0 0.0
2015-May-17 13:32N 47°34' W 122°21'0 0.0
2015-May-17 12:33N 47°34' W 122°21'0 0.6
2015-May-17 12:32N 47°34' W 122°21'0 0.0
2015-May-17 11:33N 47°34' W 122°21'0 0.0
2015-May-17 11:25N 47°34' W 122°21'0 0.0
2015-May-17 10:33N 47°34' W 122°21'0 0.1
2015-May-17 10:30N 47°34' W 122°21'0 0.0
2015-May-17 09:33N 47°34' W 122°21'0 0.0
2015-May-17 09:19N 47°34' W 122°21'0 0.0
2015-May-17 08:33N 47°34' W 122°21'0 0.1
2015-May-17 08:29N 47°34' W 122°21'0 0.0
2015-May-17 07:33N 47°34' W 122°21'0 0.0
2015-May-17 07:18N 47°34' W 122°21'0 0.0
2015-May-17 06:33N 47°34' W 122°21'0 0.0
2015-May-17 06:33N 47°34' W 122°21'0 0.0
2015-May-17 06:03N 47°34' W 122°21'0 0.0
2015-May-17 05:33N 47°34' W 122°21'0 0.0
2015-May-17 04:33N 47°34' W 122°21'0 0.0
2015-May-17 04:33N 47°34' W 122°21'0 0.0
2015-May-17 03:33N 47°34' W 122°21'0 0.0
2015-May-17 03:32N 47°34' W 122°21'0 0.0
2015-May-17 02:33N 47°34' W 122°21'0 0.4
2015-May-17 02:32N 47°34' W 122°21'0 0.0
2015-May-17 01:32N 47°34' W 122°21'0 0.0
2015-May-17 01:25N 47°34' W 122°21'0 0.0
2015-May-17 00:33N 47°34' W 122°21'0 0.1
2015-May-17 00:30N 47°34' W 122°21'0 0.0
2015-May-16 23:33N 47°34' W 122°21'0 0.1
2015-May-16 23:29N 47°34' W 122°21'1 1.5
2015-May-16 22:33N 47°35' W 122°21'0 0.1
2015-May-16 22:28N 47°35' W 122°21'0 0.0
2015-May-16 21:33N 47°35' W 122°21'0 0.7
2015-May-16 21:29N 47°35' W 122°21'0 0.1
2015-May-16 20:34N 47°35' W 122°22'0 0.6
2015-May-16 20:33N 47°35' W 122°22'2 2.1
2015-May-16 19:33N 47°33' W 122°21'0 0.0
2015-May-16 19:33N 47°33' W 122°21'1 0.6
2015-May-16 18:33N 47°33' W 122°20'0 0.0
2015-May-16 18:33N 47°33' W 122°20'3 3.1
2015-May-16 17:33N 47°36' W 122°22'0 0.0
2015-May-16 17:33N 47°36' W 122°22'2 2.2
2015-May-16 16:32N 47°34' W 122°21'0 7.5
2015-May-16 16:31N 47°34' W 122°21'0 0.5
2015-May-16 15:33N 47°34' W 122°21'0 0.0
2015-May-16 15:31N 47°34' W 122°21'0 0.0
2015-May-16 14:33N 47°34' W 122°21'0 0.0
2015-May-16 14:29N 47°34' W 122°21'0 0.0
2015-May-16 13:33N 47°34' W 122°21'0 0.0
2015-May-16 13:29N 47°34' W 122°21'0 0.0
2015-May-16 12:33N 47°34' W 122°21'0 0.1
2015-May-16 12:29N 47°34' W 122°21'0 0.0
2015-May-16 11:33N 47°34' W 122°21'0 0.1
2015-May-16 11:29N 47°34' W 122°21'0 0.0
2015-May-16 10:33N 47°34' W 122°21'0 0.0
2015-May-16 10:29N 47°34' W 122°21'0 0.0
2015-May-16 09:33N 47°34' W 122°21'0 0.0
2015-May-16 09:29N 47°34' W 122°21'0 0.0
2015-May-16 08:34N 47°34' W 122°21'0 0.0
2015-May-16 08:33N 47°34' W 122°21'0 0.0
2015-May-16 07:33N 47°34' W 122°21'0 0.0
2015-May-16 07:33N 47°34' W 122°21'0 0.0
2015-May-16 06:33N 47°34' W 122°21'0 0.0
2015-May-16 06:33N 47°34' W 122°21'0 0.0
2015-May-16 06:02N 47°34' W 122°21'0 0.0
2015-May-16 05:33N 47°34' W 122°21'0 0.0
2015-May-16 04:33N 47°34' W 122°21'0 0.0
2015-May-16 04:31N 47°34' W 122°21'0 0.0
2015-May-16 03:33N 47°34' W 122°21'0 2.1
2015-May-16 03:31N 47°34' W 122°21'0 0.5
2015-May-16 02:33N 47°34' W 122°21'0 9.2
2015-May-16 02:31N 47°34' W 122°21'1 1.0
2015-May-16 01:34N 47°33' W 122°20'0 0.0
2015-May-16 01:19N 47°33' W 122°20'0 0.0
2015-May-16 00:39N 47°33' W 122°20'0 0.0
2015-May-16 00:33N 47°33' W 122°20'0 0.0
2015-May-15 23:31N 47°33' W 122°20'0 0.0
2015-May-15 23:30N 47°33' W 122°20'2 1.8
2015-May-15 22:30N 47°35' W 122°22'1 1.0
2015-May-15 21:33N 47°35' W 122°22'2 1.8
2015-May-15 20:33N 47°34' W 122°21'0 0.3
2015-May-15 19:33N 47°34' W 122°21'1 1.3
2015-May-15 18:33N 47°35' W 122°22'3 2.6
2015-May-15 17:33N 47°38' W 122°23'4 3.9
2015-May-15 16:33N 47°34' W 122°21'0 0.0
2015-May-15 15:33N 47°34' W 122°21'0 0.0
2015-May-15 14:32N 47°34' W 122°21'0 0.0
2015-May-15 13:23N 47°34' W 122°21'0 0.0
2015-May-15 12:33N 47°34' W 122°21'0 0.0
2015-May-15 11:34N 47°34' W 122°21'0 0.0
2015-May-15 10:33N 47°34' W 122°21'0 0.0
2015-May-15 09:33N 47°34' W 122°21'0 0.0
2015-May-15 08:33N 47°34' W 122°21'0 0.0
2015-May-15 07:33N 47°34' W 122°21'0 0.0
2015-May-15 06:33N 47°34' W 122°21'1 1.2
2015-May-15 05:33N 47°35' W 122°21'0 0.0
2015-May-15 04:33N 47°35' W 122°21'2 2.2
2015-May-15 03:33N 47°33' W 122°21'1 1.0
2015-May-15 02:33N 47°34' W 122°21'0 0.0
2015-May-15 01:33N 47°34' W 122°21'0 0.0
2015-May-15 00:33N 47°34' W 122°21'1 1.3
2015-May-14 23:32N 47°35' W 122°21'1 1.4
2015-May-14 22:33N 47°34' W 122°21'2 1.8
2015-May-14 21:33N 47°36' W 122°22'3 2.6
2015-May-14 20:33N 47°33' W 122°21'0 0.1
2015-May-14 20:08N 47°33' W 122°21'2 3.5
2015-May-14 19:33N 47°35' W 122°21'0 0.0
2015-May-14 19:33N 47°35' W 122°21'0 0.0
2015-May-14 18:33N 47°35' W 122°21'0 0.0
2015-May-14 18:32N 47°35' W 122°21'0 0.2
2015-May-14 17:33N 47°35' W 122°21'0 7.7
2015-May-14 17:32N 47°35' W 122°22'2 2.1
2015-May-14 16:31N 47°33' W 122°21'0 1.4
2015-May-14 16:31N 47°33' W 122°21'4 4.5
2015-May-14 15:33N 47°37' W 122°24'0 8.2
2015-May-14 15:31N 47°37' W 122°24'1 0.9
2015-May-14 14:33N 47°37' W 122°23'0 0.2
2015-May-14 14:30N 47°37' W 122°23'4 3.9
2015-May-14 13:33N 47°34' W 122°21'0 9.5
2015-May-14 13:31N 47°34' W 122°21'0 0.0
2015-May-14 01:38N 47°33' W 122°21'0 0.9
2015-May-14 01:31N 47°33' W 122°21'0 5.3
2015-May-14 01:27N 47°34' W 122°21'0 0.4
2015-May-14 00:34N 47°33' W 122°21'0 0.0
2015-May-14 00:32N 47°33' W 122°21'2 2.1
2015-May-13 23:34N 47°35' W 122°21'0 0.3
2015-May-13 23:32N 47°35' W 122°21'3 2.8
2015-May-13 22:34N 47°38' W 122°23'0 3.4
2015-May-13 22:32N 47°38' W 122°23'3 2.6
2015-May-13 21:34N 47°35' W 122°21'0 1.2
2015-May-13 21:31N 47°35' W 122°21'2 1.9
2015-May-13 20:34N 47°34' W 122°21'1 6.0
2015-May-13 20:26N 47°34' W 122°21'1 1.1
2015-May-13 19:34N 47°35' W 122°22'0 6.6
2015-May-13 19:31N 47°35' W 122°22'2 1.6
2015-May-13 18:34N 47°34' W 122°21'0 6.3
2015-May-13 18:31N 47°34' W 122°21'1 1.0
2015-May-13 17:33N 47°35' W 122°22'0 5.0
2015-May-13 17:31N 47°34' W 122°21'2 2.3
2015-May-13 16:33N 47°33' W 122°20'0 0.0
2015-May-13 16:30N 47°33' W 122°20'3 2.9
2015-May-13 15:34N 47°35' W 122°21'0 0.1
2015-May-13 15:30N 47°35' W 122°21'2 1.6
2015-May-13 14:33N 47°34' W 122°21'0 5.4
2015-May-13 14:29N 47°33' W 122°21'1 0.7
2015-May-13 13:22N 47°34' W 122°21'0 0.0
2015-May-13 13:15N 47°34' W 122°21'0 0.0
2015-May-13 12:34N 47°34' W 122°21'0 0.1
2015-May-13 12:29N 47°34' W 122°21'0 0.0
2015-May-13 11:33N 47°34' W 122°21'0 0.0
2015-May-13 11:28N 47°34' W 122°21'0 0.0
2015-May-13 10:34N 47°34' W 122°21'0 0.0
2015-May-13 10:33N 47°34' W 122°21'0 0.0
2015-May-13 09:33N 47°34' W 122°21'0 0.0
2015-May-13 09:29N 47°34' W 122°21'0 0.0
2015-May-13 08:31N 47°34' W 122°21'0 0.1
2015-May-13 08:28N 47°34' W 122°21'0 0.0
2015-May-13 07:34N 47°34' W 122°21'0 0.0
2015-May-13 07:33N 47°34' W 122°21'0 0.0
2015-May-13 06:30N 47°34' W 122°21'0 0.0
2015-May-13 06:17N 47°34' W 122°21'0 0.0
2015-May-13 05:32N 47°34' W 122°21'0 0.0
2015-May-13 04:34N 47°34' W 122°21'0 0.3
2015-May-13 04:32N 47°34' W 122°21'0 0.0
2015-May-13 03:33N 47°34' W 122°21'0 0.0
2015-May-13 03:32N 47°34' W 122°21'0 0.0
2015-May-13 02:33N 47°34' W 122°21'0 0.0
2015-May-13 02:26N 47°34' W 122°21'0 0.0
2015-May-13 01:33N 47°34' W 122°21'0 0.3
2015-May-13 01:31N 47°34' W 122°21'0 0.0
2015-May-13 00:34N 47°34' W 122°21'0 0.3
2015-May-13 00:31N 47°34' W 122°21'1 1.2
2015-May-12 23:34N 47°35' W 122°21'0 0.1
2015-May-12 23:31N 47°35' W 122°21'1 1.4
2015-May-12 22:33N 47°36' W 122°23'0 5.7
2015-May-12 22:30N 47°36' W 122°23'1 1.4
2015-May-12 21:34N 47°35' W 122°22'0 4.7
2015-May-12 21:29N 47°35' W 122°22'3 3.2
2015-May-12 20:33N 47°32' W 122°20'2 4.2
2015-May-12 20:03N 47°34' W 122°21'1 1.5
2015-May-12 19:33N 47°35' W 122°22'0 0.1
2015-May-12 19:23N 47°35' W 122°22'2 2.6
2015-May-12 18:32N 47°33' W 122°20'0 0.6
2015-May-12 18:28N 47°33' W 122°20'1 1.6
2015-May-12 17:33N 47°34' W 122°21'0 0.0
2015-May-12 17:12N 47°34' W 122°21'0 0.0
2015-May-12 16:34N 47°34' W 122°21'0 0.0
2015-May-12 16:32N 47°34' W 122°21'0 0.0
2015-May-12 15:33N 47°34' W 122°21'0 0.0
2015-May-12 15:32N 47°34' W 122°21'1 0.9
2015-May-12 14:34N 47°33' W 122°21'0 0.0
2015-May-12 14:32N 47°33' W 122°21'1 1.4
2015-May-12 13:34N 47°35' W 122°22'0 6.4
2015-May-12 13:32N 47°35' W 122°22'0 0.4
2015-May-12 12:33N 47°34' W 122°21'0 6.8
2015-May-12 12:31N 47°34' W 122°21'0 0.0
2015-May-12 02:54N 47°34' W 122°21'2 6.1
2015-May-12 02:33N 47°36' W 122°22'0 2.3
2015-May-12 02:23N 47°36' W 122°22'  

Dump ship's entire track history